Terminal Aerodrome Forecast
Issued by NWS Spokane, WA

Home | Current Version | Previous Version | Text Only | Print | Product List | Glossary On
Versions: 1 2 3 4 5 6 7 8 9 10 11 12 13 14 15 16
000
FTUS46 KOTX 271724
TAFGEG
TAF
KGEG 271724Z 2718/2818 06005KT P6SM FEW100
     FM272200 33007KT P6SM VCSH SCT070 BKN100
     FM280200 04003KT P6SM FEW100 FEW250=

USA.gov is the U.S. government's official web portal to all federal, state and local government web resources and services.